Time;durP1;ratioP1;P1;durP2;ratioP2;P2;SDS_P1;SDS_P2;PMS_P1;PMS_P2;Temp;Humidity;BMP_temperature;BMP_pressure;BME280_temperature;BME280_humidity;BME280_pressure;Samples;Min_cycle;Max_cycle;Signal;HPM_P1;HPM_P2
2021/08/24 00:09:12;;;;;;;5.90;5.30;;;;;;;14.56;86.54;99631.29;472377;1194;141785;-59
2021/08/24 00:19:17;;;;;;;5.30;4.90;;;;;;;14.56;86.15;99627.39;472236;1195;141725;-59
2021/08/24 00:29:23;;;;;;;5.60;5.10;;;;;;;14.56;85.93;99635.54;471514;1195;142412;-59
2021/08/24 00:39:29;;;;;;;4.80;4.20;;;;;;;14.55;86.01;99635.41;472505;1191;140768;-60
2021/08/24 00:49:36;;;;;;;5.70;5.20;;;;;;;14.54;85.84;99637.07;472102;1195;141360;-60
2021/08/24 00:59:43;;;;;;;5.30;4.80;;;;;;;14.54;85.50;99645.00;472349;1191;142356;-60
2021/08/24 01:09:55;;;;;;;7.10;6.40;;;;;;;14.52;85.24;99654.31;472034;1195;140603;-60
2021/08/24 01:20:31;;;;;;;6.20;5.00;;;;;;;14.45;84.85;99657.13;471147;1195;142122;-59
2021/08/24 01:30:57;;;;;;;5.60;4.30;;;;;;;14.39;84.38;99662.06;472209;1195;141903;-59
2021/08/24 01:41:10;;;;;;;4.90;4.50;;;;;;;14.30;84.24;99670.98;471271;1195;141543;-60
2021/08/24 01:51:20;;;;;;;5.50;4.90;;;;;;;14.23;84.14;99677.52;468835;1195;141839;-59
2021/08/24 02:01:34;;;;;;;6.00;4.70;;;;;;;14.17;84.17;99682.79;472243;1195;141051;-59
2021/08/24 02:11:43;;;;;;;4.50;4.20;;;;;;;14.10;84.16;99693.80;472032;1195;141914;-59
2021/08/24 02:21:55;;;;;;;12.00;4.70;;;;;;;14.09;84.08;99695.89;472209;1195;140853;-59
2021/08/24 02:32:05;;;;;;;4.80;4.40;;;;;;;14.07;83.94;99701.86;471400;1195;141916;-59
2021/08/24 02:42:17;;;;;;;5.30;4.80;;;;;;;14.07;83.80;99698.52;472141;1195;141610;-59
2021/08/24 02:52:24;;;;;;;5.10;4.60;;;;;;;14.08;83.69;99715.83;471952;1195;143241;-59
2021/08/24 03:02:29;;;;;;;4.60;4.10;;;;;;;14.06;83.49;99720.70;471288;1195;141561;-59
2021/08/24 03:12:42;;;;;;;5.10;4.60;;;;;;;14.08;83.41;99725.37;472042;1192;141752;-60
2021/08/24 03:22:49;;;;;;;4.50;4.10;;;;;;;14.06;83.49;99737.08;468469;1194;142068;-58
2021/08/24 03:32:55;;;;;;;4.30;3.90;;;;;;;14.00;83.59;99730.17;468229;1194;140470;-58
2021/08/24 03:43:01;;;;;;;5.50;4.80;;;;;;;13.91;83.45;99734.86;472444;1194;141855;-59
2021/08/24 03:53:07;;;;;;;5.00;4.50;;;;;;;13.90;83.36;99749.90;471418;1195;142476;-59
2021/08/24 04:03:13;;;;;;;5.50;5.00;;;;;;;13.95;83.40;99757.50;470685;1195;140839;-59
2021/08/24 04:13:19;;;;;;;5.00;4.20;;;;;;;13.94;83.60;99768.30;471905;1195;142981;-59
2021/08/24 04:23:25;;;;;;;4.00;3.70;;;;;;;13.92;83.56;99781.46;471475;1194;142603;-59
2021/08/24 04:33:31;;;;;;;6.60;4.90;;;;;;;13.93;83.42;99784.52;472199;1194;142128;-59
2021/08/24 04:43:37;;;;;;;6.20;4.90;;;;;;;13.92;83.39;99786.17;471646;1194;141930;-59
2021/08/24 04:53:42;;;;;;;6.50;5.70;;;;;;;13.92;83.58;99785.70;472323;1183;151980;-59
2021/08/24 05:03:48;;;;;;;5.40;5.00;;;;;;;13.94;83.64;99797.11;472591;1194;141361;-60
2021/08/24 05:13:54;;;;;;;6.20;5.70;;;;;;;13.97;83.73;99801.28;471730;1194;142630;-59
2021/08/24 05:24:00;;;;;;;6.30;5.50;;;;;;;13.98;83.73;99811.41;472308;1194;141877;-60
2021/08/24 05:34:06;;;;;;;5.30;4.90;;;;;;;13.98;83.79;99818.86;472504;1185;142071;-60
2021/08/24 05:44:12;;;;;;;6.40;5.80;;;;;;;13.99;83.66;99821.20;471061;1195;141702;-59
2021/08/24 05:54:17;;;;;;;6.40;4.50;;;;;;;13.97;83.50;99836.67;472465;1194;141749;-59
2021/08/24 06:04:23;;;;;;;7.40;4.30;;;;;;;13.91;83.38;99849.27;471932;1195;142636;-59
2021/08/24 06:14:29;;;;;;;3.80;3.40;;;;;;;13.88;83.21;99861.63;471278;1195;141311;-59
2021/08/24 06:24:37;;;;;;;4.10;3.60;;;;;;;13.82;82.91;99880.16;471950;1195;141165;-60
2021/08/24 06:34:44;;;;;;;3.40;3.10;;;;;;;13.78;82.98;99889.48;471187;1195;142529;-65
2021/08/24 06:44:50;;;;;;;6.80;3.70;;;;;;;13.74;82.87;99890.41;472457;1195;142021;-65
2021/08/24 06:54:56;;;;;;;4.30;3.70;;;;;;;13.72;82.80;99900.61;468716;1194;141458;-63
2021/08/24 07:05:02;;;;;;;6.10;3.20;;;;;;;13.68;82.21;99911.10;465664;1186;140974;-63
2021/08/24 07:15:11;;;;;;;4.20;3.00;;;;;;;13.39;81.91;99912.39;463362;1195;141404;-63
2021/08/24 07:25:20;;;;;;;3.80;2.70;;;;;;;13.15;82.22;99915.33;472206;1195;141832;-65
2021/08/24 07:35:27;;;;;;;4.80;2.80;;;;;;;12.95;82.74;99915.40;464559;1195;141188;-62
2021/08/24 07:45:33;;;;;;;3.20;2.30;;;;;;;12.89;82.97;99939.39;456142;1195;141168;-62
2021/08/24 07:55:39;;;;;;;2.90;2.10;;;;;;;12.80;82.56;99948.45;460255;1195;163184;-66
2021/08/24 08:06:24;;;;;;;3.60;2.90;;;;;;;12.79;82.67;99955.73;464500;1195;141271;-67
2021/08/24 08:16:36;;;;;;;4.10;2.60;;;;;;;12.88;82.72;99971.59;470591;1195;142221;-61
2021/08/24 08:26:44;;;;;;;4.00;1.80;;;;;;;13.09;82.53;99976.20;455810;1203;142239;-62
2021/08/24 08:36:50;;;;;;;2.90;1.70;;;;;;;13.24;82.14;99986.58;469126;1195;141528;-61
2021/08/24 08:47:11;;;;;;;2.60;2.00;;;;;;;13.42;81.28;99989.59;471138;1195;141943;-66
2021/08/24 08:57:26;;;;;;;2.40;2.00;;;;;;;13.55;80.75;99998.89;472062;1195;194052;-66
2021/08/24 09:07:38;;;;;;;3.10;2.00;;;;;;;13.72;80.60;100001.79;469662;1194;140957;-62
2021/08/24 09:17:44;;;;;;;3.00;2.10;;;;;;;14.14;80.17;100004.25;471981;1195;141240;-67
2021/08/24 09:27:59;;;;;;;3.70;1.60;;;;;;;14.41;78.79;100014.15;450984;1195;10002003;-62
2021/08/24 09:38:14;;;;;;;2.20;1.70;;;;;;;14.57;77.80;100021.55;471231;1195;145119;-61
2021/08/24 09:48:21;;;;;;;2.10;1.90;;;;;;;14.59;76.94;100028.12;460827;1191;142430;-60
2021/08/24 09:58:34;;;;;;;2.30;1.20;;;;;;;14.77;76.24;100029.12;467218;1196;141515;-70
2021/08/24 10:08:42;;;;;;;2.40;2.00;;;;;;;14.97;75.38;100033.09;458812;1195;140725;-69
2021/08/24 10:18:53;;;;;;;3.00;1.60;;;;;;;15.29;75.07;100037.77;461241;1196;141349;-69
2021/08/24 10:29:01;;;;;;;4.60;2.50;;;;;;;15.61;74.19;100039.56;455385;1203;141389;-68
2021/08/24 10:39:17;;;;;;;2.00;1.80;;;;;;;15.68;71.80;100045.55;470108;1195;141776;-70
2021/08/24 10:49:24;;;;;;;2.00;1.30;;;;;;;15.68;69.83;100049.20;472069;1195;142106;-68
2021/08/24 10:59:43;;;;;;;2.50;1.00;;;;;;;15.81;69.22;100060.20;471241;1195;141431;-70
2021/08/24 11:09:55;;;;;;;2.80;1.30;;;;;;;16.01;68.07;100063.66;472087;1195;141534;-66
2021/08/24 11:20:16;;;;;;;2.00;1.10;;;;;;;16.35;67.28;100073.54;471351;1195;141759;-63
2021/08/24 11:30:35;;;;;;;1.40;1.10;;;;;;;16.62;66.22;100082.98;467151;1195;141217;-71
2021/08/24 11:40:48;;;;;;;10.30;5.30;;;;;;;16.92;65.75;100099.67;464761;1195;141605;-66
2021/08/24 11:51:01;;;;;;;9.60;4.90;;;;;;;17.11;64.42;100095.09;467590;1195;142261;-64
2021/08/24 12:01:09;;;;;;;5.90;1.50;;;;;;;17.36;63.98;100111.08;460846;1195;142835;-65
2021/08/24 12:11:18;;;;;;;6.00;1.40;;;;;;;17.80;62.81;100114.92;455476;1196;141885;-68
2021/08/24 12:21:32;;;;;;;4.10;1.40;;;;;;;17.90;61.88;100121.56;472345;1194;141707;-63
2021/08/24 12:31:49;;;;;;;2.30;1.40;;;;;;;17.85;60.77;100128.34;471145;1195;142796;-57
2021/08/24 12:42:12;;;;;;;3.00;1.60;;;;;;;18.11;60.20;100129.90;472155;1195;141373;-60
2021/08/24 12:52:36;;;;;;;2.80;1.30;;;;;;;18.21;59.88;100129.76;472013;1195;141223;-74
2021/08/24 13:02:52;;;;;;;3.40;1.20;;;;;;;18.64;59.14;100137.51;471890;1195;140469;-69
2021/08/24 13:12:59;;;;;;;7.30;1.80;;;;;;;18.68;57.05;100127.25;468006;1195;140702;-69
2021/08/24 13:23:11;;;;;;;3.60;0.80;;;;;;;18.60;56.04;100127.43;471429;1195;141019;-64
2021/08/24 13:33:21;;;;;;;1.60;1.10;;;;;;;18.52;55.48;100133.36;462968;1195;143988;-62
2021/08/24 13:43:29;;;;;;;4.50;1.20;;;;;;;18.47;54.42;100127.65;463195;1194;142899;-62
2021/08/24 13:53:37;;;;;;;8.60;2.10;;;;;;;18.30;54.33;100130.92;455917;1195;141199;-61
2021/08/24 14:03:47;;;;;;;4.80;1.50;;;;;;;18.03;54.20;100130.33;469874;1195;141712;-63
2021/08/24 14:13:53;;;;;;;3.30;1.30;;;;;;;17.68;55.12;100136.92;457875;1195;140826;-61
2021/08/24 14:24:04;;;;;;;7.10;2.20;;;;;;;17.63;53.82;100147.23;461386;1194;140404;-61
2021/08/24 14:34:21;;;;;;;7.50;2.50;;;;;;;17.67;53.52;100148.54;472248;1195;141450;-61
2021/08/24 14:44:30;;;;;;;2.90;2.00;;;;;;;17.43;53.33;100144.14;470277;1195;141901;-67
2021/08/24 14:54:37;;;;;;;9.30;4.00;;;;;;;17.23;53.59;100148.98;468856;1195;140685;-60
2021/08/24 15:04:44;;;;;;;5.20;3.00;;;;;;;17.17;53.45;100152.95;471244;1195;141053;-60
2021/08/24 15:14:51;;;;;;;9.30;3.70;;;;;;;17.20;53.15;100152.58;472146;1195;141507;-57
2021/08/24 15:25:00;;;;;;;8.40;4.20;;;;;;;17.32;52.85;100154.20;463953;1195;10001401;-58
2021/08/24 15:35:05;;;;;;;;;;;;;;;17.44;52.44;100158.38;471302;1195;141507;-59
2021/08/24 15:45:22;;;;;;;5.30;3.50;;;;;;;17.26;52.53;100171.37;472300;1195;128693;-60
2021/08/24 15:55:34;;;;;;;6.60;3.70;;;;;;;17.01;52.27;100169.54;471938;1195;141436;-63
2021/08/24 16:05:40;;;;;;;6.80;4.00;;;;;;;16.95;51.86;100170.36;472164;1195;141512;-64
2021/08/24 16:15:47;;;;;;;20.00;5.10;;;;;;;16.71;52.10;100175.95;472155;1195;140969;-64
2021/08/24 16:25:53;;;;;;;10.40;3.90;;;;;;;16.43;52.52;100176.77;471434;1194;144660;-64
2021/08/24 16:35:59;;;;;;;10.10;4.00;;;;;;;16.14;52.89;100185.55;469666;1195;140824;-64
2021/08/24 16:46:07;;;;;;;5.40;3.30;;;;;;;15.88;53.14;100184.14;467765;1194;141330;-64
2021/08/24 16:56:14;;;;;;;7.00;3.30;;;;;;;15.57;53.64;100186.13;471415;1195;141396;-64
2021/08/24 17:06:19;;;;;;;7.40;3.70;;;;;;;15.29;54.41;100190.63;466179;1195;142369;-63
2021/08/24 17:16:26;;;;;;;9.20;4.00;;;;;;;14.95;55.03;100192.96;472138;1195;141204;-64
2021/08/24 17:26:32;;;;;;;7.60;3.40;;;;;;;14.62;55.88;100195.09;465831;1195;141282;-66
2021/08/24 17:36:38;;;;;;;14.80;4.50;;;;;;;14.44;56.80;100198.85;472155;1191;140945;-64
2021/08/24 17:46:47;;;;;;;9.00;4.70;;;;;;;14.32;57.50;100200.55;469962;1195;140982;-64
2021/08/24 17:56:53;;;;;;;12.30;5.10;;;;;;;14.12;58.13;100203.30;472226;1195;140967;-65
2021/08/24 18:06:58;;;;;;;7.20;4.60;;;;;;;13.95;58.79;100207.98;463828;1195;10003014;-63
2021/08/24 18:17:05;;;;;;;10.20;4.50;;;;;;;13.68;59.42;100208.75;471104;1195;141364;-65
2021/08/24 18:27:13;;;;;;;9.50;4.70;;;;;;;13.38;60.14;100212.80;472330;1191;143235;-65
2021/08/24 18:37:20;;;;;;;17.00;5.00;;;;;;;13.28;60.84;100214.52;461553;1194;141594;-64
2021/08/24 18:47:26;;;;;;;10.40;6.10;;;;;;;13.20;61.74;100215.55;471443;1186;141871;-64
2021/08/24 18:57:32;;;;;;;16.00;7.40;;;;;;;13.07;62.65;100213.38;472119;1195;141426;-64
2021/08/24 19:07:39;;;;;;;9.20;6.00;;;;;;;12.94;63.47;100209.50;471529;1194;162136;-63
2021/08/24 19:17:44;;;;;;;8.70;5.40;;;;;;;12.86;64.28;100210.50;471809;1196;142424;-65
2021/08/24 19:27:51;;;;;;;7.80;4.90;;;;;;;12.77;65.13;100214.76;464775;1195;144288;-64
2021/08/24 19:37:57;;;;;;;13.60;5.10;;;;;;;12.71;65.92;100218.86;471154;1195;142951;-64
2021/08/24 19:48:02;;;;;;;11.30;5.40;;;;;;;12.72;66.31;100223.52;467494;1194;142002;-64
2021/08/24 19:58:08;;;;;;;9.70;4.90;;;;;;;12.72;66.62;100226.11;456012;1202;142185;-63
2021/08/24 20:08:17;;;;;;;11.60;5.20;;;;;;;12.68;66.80;100226.19;459136;1194;142265;-62
2021/08/24 20:18:24;;;;;;;6.30;4.30;;;;;;;12.67;67.07;100223.63;456252;1196;142846;-63
2021/08/24 20:28:30;;;;;;;11.90;5.10;;;;;;;12.66;67.18;100220.89;470122;1194;143191;-65
2021/08/24 20:38:37;;;;;;;8.20;5.10;;;;;;;12.65;67.20;100219.36;457953;1194;141826;-62
2021/08/24 20:48:46;;;;;;;30.30;6.40;;;;;;;12.57;67.33;100219.15;469063;1195;141592;-65
2021/08/24 20:58:52;;;;;;;16.40;6.40;;;;;;;12.49;67.57;100217.89;457731;1195;142120;-62
2021/08/24 21:08:58;;;;;;;13.20;5.50;;;;;;;12.41;67.72;100219.61;471740;1195;140838;-63
2021/08/24 21:19:04;;;;;;;8.10;6.00;;;;;;;12.36;67.67;100214.16;458884;1195;141992;-64
2021/08/24 21:29:10;;;;;;;11.00;6.00;;;;;;;12.23;67.77;100210.88;455415;1202;196173;-63
2021/08/24 21:39:16;;;;;;;11.60;5.20;;;;;;;12.21;67.46;100213.13;461295;1194;142025;-61
2021/08/24 21:49:22;;;;;;;13.80;6.20;;;;;;;12.22;66.70;100214.66;456781;1194;141865;-66
2021/08/24 21:59:28;;;;;;;12.80;5.70;;;;;;;12.19;66.53;100217.42;455382;1197;141758;-66
2021/08/24 22:09:34;;;;;;;9.50;6.00;;;;;;;12.13;66.16;100215.02;456750;1196;140762;-63
2021/08/24 22:19:43;;;;;;;13.50;6.20;;;;;;;11.99;66.09;100209.33;460346;1194;141706;-65
2021/08/24 22:29:48;;;;;;;10.60;5.40;;;;;;;11.76;66.07;100203.63;472567;1191;182991;-66
2021/08/24 22:39:54;;;;;;;11.10;5.80;;;;;;;11.55;66.45;100190.45;471793;1195;142393;-64
2021/08/24 22:50:00;;;;;;;12.40;5.20;;;;;;;11.40;66.66;100183.45;471331;1195;141883;-64
2021/08/24 23:00:07;;;;;;;7.00;5.00;;;;;;;11.25;67.06;100172.39;461137;1195;141089;-62
2021/08/24 23:10:14;;;;;;;9.00;5.50;;;;;;;11.02;67.71;100169.98;472212;1195;141443;-63
2021/08/24 23:20:19;;;;;;;15.20;7.50;;;;;;;10.78;68.33;100159.64;471024;1195;141586;-64
2021/08/24 23:30:26;;;;;;;15.50;7.50;;;;;;;10.57;68.96;100156.74;471839;1195;141048;-64
2021/08/24 23:40:32;;;;;;;13.20;7.10;;;;;;;10.35;69.44;100155.09;472436;1194;142444;-64
2021/08/24 23:50:38;;;;;;;10.50;6.00;;;;;;;10.15;69.84;100152.14;472019;1195;140925;-64
